Logan - 24 Hour Table
Date & TimeSolar
Radiation
(W/m²)
Wind
Speed
(mph)
Wind
Direction
(degrees)
Air
Temperature
(°F)
Relative
Humidity
(%)
Precipitation
(inches)
Barometric
Pressure
(inHg)
2018/06/20 07:00 222 2.3 337 53.9 76 0.00 30.18
2018/06/20 06:00 46 2.2 15 49.2 81 0.00 30.17
2018/06/20 05:00 1 3.2 16 48.6 90 0.00 30.16
2018/06/20 04:00 0 2.2 326 48.1 95 0.00 30.15
2018/06/20 03:00 0 2.8 106 53.5 72 0.00 30.16
2018/06/20 02:00 0 3.0 196 52.8 77 0.00 30.16
2018/06/20 01:00 0 2.1 218 54.2 75 0.00 30.16
2018/06/20 00:00 0 1.9 262 55.6 72 0.00 30.16
2018/06/19 23:00 0 2.3 198 57.8 80 0.00 30.15
2018/06/19 22:00 0 1.8 51 61.2 54 0.00 30.15
2018/06/19 21:00 1 2.8 219 64.2 61 0.00 30.14
2018/06/19 20:00 57 2.7 320 68.5 51 0.00 30.11
2018/06/19 19:00 162 3.1 317 70.0 43 0.00 30.10
2018/06/19 18:00 416 2.2 341 72.1 32 0.00 30.09
2018/06/19 17:00 451 3.0 327 70.9 34 0.00 30.10
2018/06/19 16:00 537 3.3 8 70.6 44 0.00 30.11
2018/06/19 15:00 596 4.0 334 70.0 38 0.00 30.11
2018/06/19 14:00 731 3.3 300 69.5 40 0.00 30.12
2018/06/19 13:00 659 3.5 307 68.1 40 0.00 30.12
2018/06/19 12:00 769 3.7 300 67.2 44 0.00 30.12
2018/06/19 11:00 808 2.8 336 65.4 49 0.00 30.12
2018/06/19 10:00 760 2.7 314 62.4 60 0.00 30.12
2018/06/19 09:00 535 3.8 326 58.5 62 0.00 30.12
2018/06/19 08:00 333 3.1 244 55.7 72 0.00 30.13